Atlas — SV6729 — position and weather

sailwx.info

Track history (hours):
 
Tides and Currents Weather Stations Pressure Air Temp Water Temp Dewpoint Dewpoint Depression Visibility Wind Speed Wind Dir Waves Ship Positions

Atlas

Last reported at 2014-Sep-20 09:33 UTC. Time now 2014-Sep-20 10:05 UTC.
Position N 37°57' E 023°37'.

Length 29 m; draft 5 m.

Type: Tug. MMSI: 239611000.

Date/timePositionNaut miles runAvg speedWind from/ knotsBaromVisibWave heightAir tempDewpointWater temp
2014-Sep-20 09:33N 37°57' E 023°37'0 0.0
2014-Sep-20 08:29N 37°57' E 023°37'1 0.7
2014-Sep-20 07:33N 37°57' E 023°36'1 0.7
2014-Sep-20 06:32N 37°57' E 023°37'0 0.2
2014-Sep-20 05:33N 37°57' E 023°36'1 0.6
2014-Sep-20 04:33N 37°57' E 023°36'0 0.0
2014-Sep-19 14:33N 37°57' E 023°36'6 6.3
2014-Sep-19 13:33N 38°02' E 023°31'1 0.8
2014-Sep-19 12:33N 38°01' E 023°31'1 1.3
2014-Sep-19 11:29N 38°02' E 023°32'0 0.1
2014-Sep-19 09:29N 38°02' E 023°32'0 0.0
2014-Sep-19 08:23N 38°02' E 023°32'0 0.0
2014-Sep-19 07:33N 38°02' E 023°32'0 0.1
2014-Sep-19 06:33N 38°02' E 023°32'0 0.2
2014-Sep-19 05:33N 38°02' E 023°32'5 5.4
2014-Sep-19 04:33N 37°57' E 023°36'0 0.1
2014-Sep-19 03:33N 37°57' E 023°36'0 0.0
2014-Sep-18 10:33N 37°57' E 023°37'0 0.0
2014-Sep-18 09:33N 37°57' E 023°37'0 0.0
2014-Sep-18 08:34N 37°57' E 023°37'0 0.0
2014-Sep-18 07:34N 37°57' E 023°37'1 0.6
2014-Sep-18 06:33N 37°57' E 023°36'1 0.6
2014-Sep-18 05:33N 37°57' E 023°37'0 0.0
2014-Sep-18 04:33N 37°57' E 023°37'0 0.5
2014-Sep-18 03:33N 37°57' E 023°36'0 0.0
2014-Sep-17 09:33N 37°57' E 023°37'2 1.6
2014-Sep-17 08:33N 37°56' E 023°38'1 1.1
2014-Sep-17 07:33N 37°57' E 023°37'1 0.5
2014-Sep-17 06:30N 37°56' E 023°36'1 0.9
2014-Sep-17 05:33N 37°57' E 023°36'1 0.7
2014-Sep-17 04:33N 37°58' E 023°36'0 0.0
2014-Sep-16 17:32N 37°57' E 023°36'0 0.4
2014-Sep-16 16:33N 37°57' E 023°37'0 0.0
2014-Sep-16 15:33N 37°57' E 023°37'0 0.0
2014-Sep-16 14:33N 37°57' E 023°37'0 0.0
2014-Sep-16 13:33N 37°57' E 023°37'0 0.0
2014-Sep-16 12:33N 37°57' E 023°37'0 0.0
2014-Sep-16 11:33N 37°57' E 023°37'0 0.0
2014-Sep-16 10:33N 37°57' E 023°37'0 0.0
2014-Sep-16 09:33N 37°57' E 023°37'0 0.0
2014-Sep-16 08:25N 37°57' E 023°37'0 0.0
2014-Sep-16 07:32N 37°57' E 023°37'0 0.0
2014-Sep-16 06:33N 37°57' E 023°37'0 0.0
2014-Sep-16 05:32N 37°57' E 023°37'1 0.6
2014-Sep-16 04:33N 37°57' E 023°36'0 0.4
2014-Sep-16 03:33N 37°57' E 023°35'1 0.1
2014-Sep-15 11:17N 37°57' E 023°36'0 0.2
2014-Sep-15 10:33N 37°57' E 023°37'0 0.0
2014-Sep-15 09:33N 37°57' E 023°37'0 0.0
2014-Sep-15 08:33N 37°57' E 023°37'2 2.2
2014-Sep-15 07:31N 37°57' E 023°34'2 2.3
2014-Sep-15 06:33N 37°57' E 023°37'0 0.0
2014-Sep-15 05:33N 37°57' E 023°37'1 0.8
2014-Sep-15 04:33N 37°57' E 023°36'1 0.8
2014-Sep-15 03:32N 37°57' E 023°37'0 0.0
2014-Sep-14 04:22N 37°57' E 023°36'0 0.0
2014-Sep-12 21:16N 37°57' E 023°36'1 0.9
2014-Sep-12 20:33N 37°57' E 023°36'1 0.6
2014-Sep-12 19:33N 37°57' E 023°37'0 0.0
2014-Sep-12 18:33N 37°57' E 023°37'0 0.0
2014-Sep-12 17:31N 37°57' E 023°37'0 0.0
2014-Sep-12 16:27N 37°57' E 023°37'0 0.0
2014-Sep-12 15:33N 37°57' E 023°37'0 0.0
2014-Sep-12 14:34N 37°57' E 023°37'0 0.0
2014-Sep-12 13:33N 37°57' E 023°37'0 0.0
2014-Sep-12 12:33N 37°57' E 023°37'0 0.3
2014-Sep-12 11:33N 37°57' E 023°36'0 0.0
2014-Sep-11 20:06N 37°57' E 023°36'1 1.1
2014-Sep-11 19:33N 37°57' E 023°36'1 0.0
2014-Sep-10 20:27N 37°57' E 023°36'1 0.8
2014-Sep-10 19:33N 37°57' E 023°35'1 1.0
2014-Sep-10 18:33N 37°57' E 023°37'0 0.0
2014-Sep-10 17:33N 37°57' E 023°37'0 0.0
2014-Sep-10 16:33N 37°57' E 023°37'0 0.0
2014-Sep-10 15:33N 37°57' E 023°37'0 0.3
2014-Sep-10 14:33N 37°58' E 023°36'0 0.3
2014-Sep-10 13:33N 37°57' E 023°37'0 0.0
2014-Sep-10 12:33N 37°57' E 023°37'1 0.5
2014-Sep-10 11:33N 37°57' E 023°36'  
Track history (hours):
 
Tides and Currents Weather Stations Pressure Air Temp Water Temp Dewpoint Dewpoint Depression Visibility Wind Speed Wind Dir Waves Ship Positions

Atlas

Last reported at 2014-Sep-20 09:33 UTC. Time now 2014-Sep-20 10:05 UTC.
Position N 37°57' E 023°37'.

Length 29 m; draft 5 m.

Type: Tug. MMSI: 239611000.

Date/timePositionNaut miles runAvg speedWind from/ knotsBaromVisibWave heightAir tempDewpointWater temp
2014-Sep-20 09:33N 37°57' E 023°37'0 0.0
2014-Sep-20 08:29N 37°57' E 023°37'1 0.7
2014-Sep-20 07:33N 37°57' E 023°36'1 0.7
2014-Sep-20 06:32N 37°57' E 023°37'0 0.2
2014-Sep-20 05:33N 37°57' E 023°36'1 0.6
2014-Sep-20 04:33N 37°57' E 023°36'0 0.0
2014-Sep-19 14:33N 37°57' E 023°36'6 6.3
2014-Sep-19 13:33N 38°02' E 023°31'1 0.8
2014-Sep-19 12:33N 38°01' E 023°31'1 1.3
2014-Sep-19 11:29N 38°02' E 023°32'0 0.1
2014-Sep-19 09:29N 38°02' E 023°32'0 0.0
2014-Sep-19 08:23N 38°02' E 023°32'0 0.0
2014-Sep-19 07:33N 38°02' E 023°32'0 0.1
2014-Sep-19 06:33N 38°02' E 023°32'0 0.2
2014-Sep-19 05:33N 38°02' E 023°32'5 5.4
2014-Sep-19 04:33N 37°57' E 023°36'0 0.1
2014-Sep-19 03:33N 37°57' E 023°36'0 0.0
2014-Sep-18 10:33N 37°57' E 023°37'0 0.0
2014-Sep-18 09:33N 37°57' E 023°37'0 0.0
2014-Sep-18 08:34N 37°57' E 023°37'0 0.0
2014-Sep-18 07:34N 37°57' E 023°37'1 0.6
2014-Sep-18 06:33N 37°57' E 023°36'1 0.6
2014-Sep-18 05:33N 37°57' E 023°37'0 0.0
2014-Sep-18 04:33N 37°57' E 023°37'0 0.5
2014-Sep-18 03:33N 37°57' E 023°36'0 0.0
2014-Sep-17 09:33N 37°57' E 023°37'2 1.6
2014-Sep-17 08:33N 37°56' E 023°38'1 1.1
2014-Sep-17 07:33N 37°57' E 023°37'1 0.5
2014-Sep-17 06:30N 37°56' E 023°36'1 0.9
2014-Sep-17 05:33N 37°57' E 023°36'1 0.7
2014-Sep-17 04:33N 37°58' E 023°36'0 0.0
2014-Sep-16 17:32N 37°57' E 023°36'0 0.4
2014-Sep-16 16:33N 37°57' E 023°37'0 0.0
2014-Sep-16 15:33N 37°57' E 023°37'0 0.0
2014-Sep-16 14:33N 37°57' E 023°37'0 0.0
2014-Sep-16 13:33N 37°57' E 023°37'0 0.0
2014-Sep-16 12:33N 37°57' E 023°37'0 0.0
2014-Sep-16 11:33N 37°57' E 023°37'0 0.0
2014-Sep-16 10:33N 37°57' E 023°37'0 0.0
2014-Sep-16 09:33N 37°57' E 023°37'0 0.0
2014-Sep-16 08:25N 37°57' E 023°37'0 0.0
2014-Sep-16 07:32N 37°57' E 023°37'0 0.0
2014-Sep-16 06:33N 37°57' E 023°37'0 0.0
2014-Sep-16 05:32N 37°57' E 023°37'1 0.6
2014-Sep-16 04:33N 37°57' E 023°36'0 0.4
2014-Sep-16 03:33N 37°57' E 023°35'1 0.1
2014-Sep-15 11:17N 37°57' E 023°36'0 0.2
2014-Sep-15 10:33N 37°57' E 023°37'0 0.0
2014-Sep-15 09:33N 37°57' E 023°37'0 0.0
2014-Sep-15 08:33N 37°57' E 023°37'2 2.2
2014-Sep-15 07:31N 37°57' E 023°34'2 2.3
2014-Sep-15 06:33N 37°57' E 023°37'0 0.0
2014-Sep-15 05:33N 37°57' E 023°37'1 0.8
2014-Sep-15 04:33N 37°57' E 023°36'1 0.8
2014-Sep-15 03:32N 37°57' E 023°37'0 0.0
2014-Sep-14 04:22N 37°57' E 023°36'0 0.0
2014-Sep-12 21:16N 37°57' E 023°36'1 0.9
2014-Sep-12 20:33N 37°57' E 023°36'1 0.6
2014-Sep-12 19:33N 37°57' E 023°37'0 0.0
2014-Sep-12 18:33N 37°57' E 023°37'0 0.0
2014-Sep-12 17:31N 37°57' E 023°37'0 0.0
2014-Sep-12 16:27N 37°57' E 023°37'0 0.0
2014-Sep-12 15:33N 37°57' E 023°37'0 0.0
2014-Sep-12 14:34N 37°57' E 023°37'0 0.0
2014-Sep-12 13:33N 37°57' E 023°37'0 0.0
2014-Sep-12 12:33N 37°57' E 023°37'0 0.3
2014-Sep-12 11:33N 37°57' E 023°36'0 0.0
2014-Sep-11 20:06N 37°57' E 023°36'1 1.1
2014-Sep-11 19:33N 37°57' E 023°36'1 0.0
2014-Sep-10 20:27N 37°57' E 023°36'1 0.8
2014-Sep-10 19:33N 37°57' E 023°35'1 1.0
2014-Sep-10 18:33N 37°57' E 023°37'0 0.0
2014-Sep-10 17:33N 37°57' E 023°37'0 0.0
2014-Sep-10 16:33N 37°57' E 023°37'0 0.0
2014-Sep-10 15:33N 37°57' E 023°37'0 0.3
2014-Sep-10 14:33N 37°58' E 023°36'0 0.3
2014-Sep-10 13:33N 37°57' E 023°37'0 0.0
2014-Sep-10 12:33N 37°57' E 023°37'1 0.5
2014-Sep-10 11:33N 37°57' E 023°36'  

Dump ship's entire track history